Time;durP1;ratioP1;P1;durP2;ratioP2;P2;SDS_P1;SDS_P2;PMS_P1;PMS_P2;Temp;Humidity;BMP_temperature;BMP_pressure;BME280_temperature;BME280_humidity;BME280_pressure;Samples;Min_cycle;Max_cycle;Signal;HPM_P1;HPM_P2
2021/12/01 00:00:54;;;;;;;0.25;0.20;;;5.20;99.90;;;;;;4996191;28;20133;-68
2021/12/01 00:03:23;;;;;;;1.58;0.20;;;5.20;99.90;;;;;;4994721;28;20023;-68
2021/12/01 00:05:50;;;;;;;0.50;0.30;;;5.30;99.90;;;;;;4992356;28;20041;-68
2021/12/01 00:08:16;;;;;;;0.20;0.20;;;5.20;99.90;;;;;;4994667;28;20026;-68
2021/12/01 00:10:42;;;;;;;0.98;0.20;;;5.30;99.90;;;;;;4986768;28;20023;-68
2021/12/01 00:13:13;;;;;;;0.17;0.17;;;5.20;99.90;;;;;;4996218;28;20022;-68
2021/12/01 00:15:49;;;;;;;0.57;0.30;;;5.20;99.90;;;;;;5011090;28;20026;-68
2021/12/01 00:18:15;;;;;;;0.85;0.20;;;5.20;99.90;;;;;;4986706;28;20491;-68
2021/12/01 00:20:53;;;;;;;0.45;0.20;;;5.20;99.90;;;;;;4978352;28;20054;-68
2021/12/01 00:23:22;;;;;;;0.57;0.30;;;5.20;99.90;;;;;;4979019;28;20030;-68
2021/12/01 00:25:54;;;;;;;0.35;0.20;;;5.20;99.90;;;;;;4995641;28;20030;-68
2021/12/01 00:28:23;;;;;;;0.65;0.30;;;5.20;99.90;;;;;;4991556;23;20585;-71
2021/12/01 00:30:50;;;;;;;0.05;0.05;;;5.30;99.90;;;;;;4984827;28;20085;-71
2021/12/01 00:33:23;;;;;;;0.38;0.20;;;5.30;99.90;;;;;;5000235;28;20144;-71
2021/12/01 00:35:54;;;;;;;0.30;0.10;;;5.30;99.90;;;;;;4985278;28;20026;-71
2021/12/01 00:38:21;;;;;;;0.65;0.20;;;5.30;99.90;;;;;;4970280;28;20097;-71
2021/12/01 00:40:47;;;;;;;0.10;0.10;;;5.30;99.90;;;;;;4963529;28;20030;-71
2021/12/01 00:43:17;;;;;;;0.10;0.10;;;5.30;99.90;;;;;;4962794;28;20030;-71
2021/12/01 00:46:00;;;;;;;0.20;0.10;;;5.30;99.90;;;;;;4960257;28;20479;-72
2021/12/01 00:48:26;;;;;;;0.20;0.20;;;5.30;99.90;;;;;;4962146;28;20022;-71
2021/12/01 00:50:54;;;;;;;0.20;0.20;;;5.30;99.90;;;;;;4966003;28;20037;-71
2021/12/01 00:53:22;;;;;;;0.40;0.15;;;5.30;99.90;;;;;;4961018;28;20027;-71
2021/12/01 00:55:51;;;;;;;0.65;0.20;;;5.20;99.90;;;;;;4957890;28;20100;-71
2021/12/01 00:58:17;;;;;;;0.10;0.10;;;5.20;99.90;;;;;;4973330;28;20831;-71
2021/12/01 01:00:44;;;;;;;1.45;0.20;;;5.30;99.90;;;;;;4963687;28;20027;-71
2021/12/01 01:03:10;;;;;;;0.30;0.13;;;5.30;99.90;;;;;;4970540;28;20118;-71
2021/12/01 01:05:39;;;;;;;0.20;0.10;;;5.30;99.90;;;;;;4962055;28;20560;-71
2021/12/01 01:08:06;;;;;;;0.22;0.20;;;5.30;99.90;;;;;;4963519;28;20701;-71
2021/12/01 01:19:00;;;;;;;0.47;0.20;;;5.30;99.90;;;;;;4965850;28;20057;-71
2021/12/01 01:21:34;;;;;;;0.35;0.20;;;5.30;99.90;;;;;;4964264;28;20022;-71
2021/12/01 01:24:12;;;;;;;0.17;0.17;;;5.40;99.90;;;;;;4966286;28;20055;-71
2021/12/01 01:26:38;;;;;;;0.15;0.10;;;5.30;99.90;;;;;;4964194;28;20038;-71
2021/12/01 01:29:07;;;;;;;0.30;0.30;;;5.40;99.90;;;;;;4965552;28;20035;-71
2021/12/01 01:31:34;;;;;;;0.20;0.10;;;5.40;99.90;;;;;;4961342;28;20074;-71
2021/12/01 01:34:01;;;;;;;0.35;0.22;;;5.30;99.90;;;;;;4962402;28;20093;-71
2021/12/01 01:36:28;;;;;;;0.47;0.22;;;5.40;99.90;;;;;;4967133;28;20093;-71
2021/12/01 01:38:58;;;;;;;0.30;0.20;;;5.40;99.90;;;;;;4966073;28;20022;-71
2021/12/01 01:41:24;;;;;;;0.40;0.32;;;5.40;99.90;;;;;;4964478;28;20062;-71
2021/12/01 01:43:57;;;;;;;0.20;0.20;;;5.40;99.90;;;;;;4967913;28;20031;-71
2021/12/01 01:46:36;;;;;;;0.17;0.17;;;5.40;99.90;;;;;;4966867;28;20106;-71
2021/12/01 01:49:18;;;;;;;0.38;0.20;;;5.40;99.90;;;;;;4967703;28;20496;-70
2021/12/01 01:51:46;;;;;;;0.65;0.10;;;5.40;99.90;;;;;;4967619;28;20546;-70
2021/12/01 01:54:13;;;;;;;0.20;0.17;;;5.40;99.90;;;;;;4960897;28;20055;-70
2021/12/01 01:56:42;;;;;;;0.20;0.20;;;5.30;99.90;;;;;;4983787;28;20399;-70
2021/12/01 01:59:17;;;;;;;0.30;0.20;;;5.40;99.90;;;;;;4977183;28;20027;-71
2021/12/01 02:01:53;;;;;;;0.40;0.30;;;5.40;99.90;;;;;;4963919;28;20565;-71
2021/12/01 02:04:23;;;;;;;0.10;0.10;;;5.40;99.90;;;;;;4963740;28;20015;-71
2021/12/01 02:06:52;;;;;;;0.40;0.25;;;5.40;99.90;;;;;;4968732;28;20015;-71
2021/12/01 02:09:24;;;;;;;0.10;0.10;;;5.40;99.90;;;;;;4980754;28;20035;-71
2021/12/01 02:11:53;;;;;;;0.30;0.10;;;5.40;99.90;;;;;;4959534;28;20033;-71
2021/12/01 02:14:26;;;;;;;0.50;0.20;;;5.40;99.90;;;;;;4967420;28;20388;-71
2021/12/01 02:16:53;;;;;;;0.57;0.20;;;5.40;99.90;;;;;;4959767;28;20039;-71
2021/12/01 02:19:19;;;;;;;0.20;0.20;;;5.30;99.90;;;;;;4966226;28;20476;-71
2021/12/01 02:21:46;;;;;;;0.60;0.20;;;5.30;99.90;;;;;;4957233;28;20034;-71
2021/12/01 02:24:14;;;;;;;2.72;0.30;;;5.40;99.90;;;;;;4961810;28;20411;-71
2021/12/01 02:26:49;;;;;;;0.10;0.10;;;5.30;99.90;;;;;;4962060;28;20026;-71
2021/12/01 02:29:24;;;;;;;0.32;0.20;;;5.40;99.90;;;;;;4963502;28;20170;-71
2021/12/01 02:31:56;;;;;;;0.20;0.10;;;5.40;99.90;;;;;;4962570;28;20030;-71
2021/12/01 02:34:23;;;;;;;0.55;0.20;;;5.40;99.90;;;;;;4965243;28;20038;-71
2021/12/01 02:36:56;;;;;;;0.35;0.10;;;5.40;99.90;;;;;;4966049;28;20038;-71
2021/12/01 02:39:22;;;;;;;0.20;0.20;;;5.40;99.90;;;;;;4961758;28;20062;-71
2021/12/01 02:41:53;;;;;;;0.32;0.10;;;5.50;99.90;;;;;;4961612;28;20082;-71
2021/12/01 02:44:20;;;;;;;1.35;0.38;;;5.50;99.90;;;;;;4964480;28;20077;-70
2021/12/01 02:47:00;;;;;;;0.30;0.10;;;5.50;99.90;;;;;;4962977;28;20035;-71
2021/12/01 02:49:26;;;;;;;0.63;0.20;;;5.50;99.90;;;;;;4959933;28;20035;-70
2021/12/01 02:51:54;;;;;;;0.32;0.13;;;5.50;99.90;;;;;;4966029;28;20038;-71
2021/12/01 02:54:21;;;;;;;1.50;0.20;;;5.60;99.90;;;;;;4965626;28;20105;-72
2021/12/01 02:56:54;;;;;;;1.50;0.20;;;5.60;99.90;;;;;;4964902;28;20026;-71
2021/12/01 02:59:26;;;;;;;0.10;0.10;;;5.60;99.90;;;;;;4963769;28;20035;-71
2021/12/01 03:01:54;;;;;;;0.30;0.20;;;5.60;99.90;;;;;;4969325;28;20457;-71
2021/12/01 03:04:21;;;;;;;0.20;0.10;;;5.60;99.90;;;;;;4962132;28;20395;-71
2021/12/01 03:06:50;;;;;;;0.40;0.20;;;5.60;99.90;;;;;;4967433;28;20385;-71
2021/12/01 03:09:23;;;;;;;1.08;0.10;;;5.70;99.90;;;;;;4970888;28;20035;-71
2021/12/01 03:11:49;;;;;;;0.17;0.17;;;5.70;99.90;;;;;;4965648;28;20434;-71
2021/12/01 03:14:28;;;;;;;1.33;0.10;;;5.70;99.90;;;;;;4967327;28;20113;-71
2021/12/01 03:16:59;;;;;;;0.20;0.20;;;5.70;99.90;;;;;;4966923;28;20031;-71
2021/12/01 03:19:25;;;;;;;0.17;0.10;;;5.70;99.90;;;;;;4967818;28;20030;-70
2021/12/01 03:21:50;;;;;;;0.10;0.10;;;5.70;99.90;;;;;;4966503;28;20026;-70
2021/12/01 03:24:19;;;;;;;0.20;0.10;;;5.70;99.90;;;;;;4965784;28;20027;-71
2021/12/01 03:26:44;;;;;;;0.95;0.30;;;5.70;99.90;;;;;;4963334;28;20027;-71
2021/12/01 03:29:16;;;;;;;0.32;0.20;;;5.70;99.90;;;;;;4965634;28;20043;-70
2021/12/01 03:31:45;;;;;;;0.73;0.30;;;5.70;99.90;;;;;;4968522;28;20081;-71
2021/12/01 03:34:11;;;;;;;0.40;0.17;;;5.70;99.90;;;;;;4950750;28;20077;-70
2021/12/01 03:36:37;;;;;;;1.17;0.30;;;5.80;99.90;;;;;;4962960;28;20027;-71
2021/12/01 03:39:09;;;;;;;1.05;0.60;;;5.70;99.90;;;;;;4978772;28;20484;-70
2021/12/01 03:41:37;;;;;;;0.80;0.30;;;5.80;99.90;;;;;;4966332;28;20027;-70
2021/12/01 03:44:06;;;;;;;0.70;0.40;;;5.80;99.90;;;;;;4962772;28;20034;-71
2021/12/01 03:46:35;;;;;;;0.28;0.25;;;5.80;99.90;;;;;;4964695;28;20022;-70
2021/12/01 03:49:07;;;;;;;0.98;0.25;;;5.80;99.90;;;;;;4958606;28;20027;-70
2021/12/01 03:51:33;;;;;;;0.52;0.20;;;5.80;99.90;;;;;;4963714;28;20026;-70
2021/12/01 03:53:59;;;;;;;0.80;0.40;;;5.80;99.90;;;;;;4962692;28;20031;-70
2021/12/01 03:56:25;;;;;;;0.98;0.30;;;5.80;99.90;;;;;;4961202;28;20101;-70
2021/12/01 03:58:53;;;;;;;0.50;0.30;;;5.80;99.90;;;;;;4964914;28;20041;-70
2021/12/01 04:01:22;;;;;;;0.22;0.20;;;5.80;99.90;;;;;;4979362;28;20035;-71
2021/12/01 04:03:48;;;;;;;0.40;0.20;;;5.80;99.90;;;;;;4960465;28;20042;-71
2021/12/01 04:06:14;;;;;;;1.10;0.20;;;5.80;99.90;;;;;;4962197;28;20019;-71
2021/12/01 04:08:43;;;;;;;0.30;0.25;;;5.80;99.90;;;;;;4960669;28;20036;-71
2021/12/01 04:11:12;;;;;;;0.50;0.20;;;5.80;99.90;;;;;;4965059;28;20073;-71
2021/12/01 04:13:39;;;;;;;1.00;0.30;;;5.90;99.90;;;;;;4961585;28;20027;-71
2021/12/01 04:16:10;;;;;;;0.20;0.10;;;5.90;99.90;;;;;;4960420;28;20027;-71
2021/12/01 04:18:37;;;;;;;0.30;0.20;;;5.80;99.90;;;;;;4968752;28;20031;-71
2021/12/01 04:21:09;;;;;;;0.93;0.20;;;5.90;99.90;;;;;;4962092;28;20043;-71
2021/12/01 04:23:41;;;;;;;2.15;0.30;;;5.90;99.90;;;;;;4968356;28;20023;-71
2021/12/01 04:26:11;;;;;;;0.50;0.20;;;5.90;99.90;;;;;;4964674;28;21101;-71
2021/12/01 04:28:40;;;;;;;0.32;0.22;;;5.90;99.90;;;;;;4965099;28;20136;-70
2021/12/01 04:31:09;;;;;;;0.20;0.20;;;5.90;99.90;;;;;;4962294;28;20050;-71
2021/12/01 04:33:38;;;;;;;0.77;0.35;;;5.90;99.90;;;;;;4957702;28;20439;-71
2021/12/01 04:36:07;;;;;;;1.75;0.30;;;5.90;99.90;;;;;;4962424;28;20061;-71
2021/12/01 04:38:35;;;;;;;0.40;0.22;;;5.90;99.90;;;;;;4966473;28;20030;-71
2021/12/01 04:41:09;;;;;;;0.30;0.20;;;5.90;99.90;;;;;;4957095;28;20039;-71
2021/12/01 04:43:37;;;;;;;0.33;0.20;;;6.00;99.90;;;;;;4962658;28;20037;-71
2021/12/01 04:46:16;;;;;;;0.40;0.10;;;6.00;99.90;;;;;;4965231;28;20263;-71
2021/12/01 04:48:48;;;;;;;0.25;0.10;;;6.00;99.90;;;;;;4963783;28;20031;-71
2021/12/01 04:51:14;;;;;;;0.35;0.20;;;6.00;99.90;;;;;;4961134;28;20543;-71
2021/12/01 04:53:43;;;;;;;0.63;0.22;;;6.00;99.90;;;;;;4981431;28;20026;-71
2021/12/01 04:56:17;;;;;;;0.35;0.30;;;6.00;99.90;;;;;;4960771;28;20027;-71
2021/12/01 04:58:44;;;;;;;0.20;0.20;;;6.00;99.90;;;;;;4960291;28;20027;-71
2021/12/01 05:01:12;;;;;;;0.52;0.20;;;6.00;99.90;;;;;;4962664;28;20046;-70
2021/12/01 05:03:38;;;;;;;0.75;0.22;;;6.00;99.90;;;;;;4965945;28;20034;-71
2021/12/01 05:06:12;;;;;;;0.10;0.10;;;6.10;99.90;;;;;;4966661;28;20492;-71
2021/12/01 05:08:38;;;;;;;1.45;0.20;;;6.10;99.90;;;;;;4962818;28;20073;-71
2021/12/01 05:11:07;;;;;;;0.32;0.10;;;6.10;99.90;;;;;;4967398;28;20035;-70
2021/12/01 05:13:33;;;;;;;0.35;0.20;;;6.10;99.90;;;;;;4970070;28;20027;-71
2021/12/01 05:15:59;;;;;;;2.33;0.30;;;6.10;99.90;;;;;;4959590;28;20041;-71
2021/12/01 05:18:31;;;;;;;0.98;0.35;;;6.10;99.90;;;;;;4958556;28;20035;-71
2021/12/01 05:20:59;;;;;;;0.38;0.17;;;6.10;99.90;;;;;;4962137;28;20492;-70
2021/12/01 05:23:25;;;;;;;1.75;0.22;;;6.10;99.90;;;;;;4970595;28;20023;-70
2021/12/01 05:25:57;;;;;;;0.20;0.10;;;6.10;99.90;;;;;;4965048;28;20558;-70
2021/12/01 05:28:26;;;;;;;0.55;0.20;;;6.10;99.90;;;;;;4963034;28;20451;-70
2021/12/01 05:30:55;;;;;;;0.20;0.10;;;6.20;99.90;;;;;;4960920;28;20043;-70
2021/12/01 05:33:27;;;;;;;0.40;0.10;;;6.20;99.90;;;;;;4964481;28;20063;-69
2021/12/01 05:35:56;;;;;;;1.45;0.20;;;6.20;99.90;;;;;;4970373;28;20562;-70
2021/12/01 05:38:28;;;;;;;0.10;0.10;;;6.20;99.90;;;;;;4965367;28;20106;-70
2021/12/01 05:40:54;;;;;;;0.15;0.10;;;6.30;99.90;;;;;;4967657;28;20034;-71
2021/12/01 05:43:20;;;;;;;0.35;0.20;;;6.30;99.90;;;;;;4965783;28;20030;-71
2021/12/01 05:45:47;;;;;;;0.38;0.20;;;6.40;99.90;;;;;;4964859;28;20038;-71
2021/12/01 05:48:14;;;;;;;0.20;0.17;;;6.40;99.90;;;;;;4964387;28;20045;-72
2021/12/01 05:50:46;;;;;;;0.55;0.20;;;6.40;99.90;;;;;;4963689;28;20043;-71
2021/12/01 05:53:13;;;;;;;1.38;0.30;;;6.40;99.90;;;;;;4983765;28;20042;-71
2021/12/01 05:55:42;;;;;;;0.43;0.20;;;6.40;99.90;;;;;;4968647;28;20354;-70
2021/12/01 05:58:08;;;;;;;0.85;0.15;;;6.50;99.90;;;;;;4977504;28;20420;-70
2021/12/01 06:00:36;;;;;;;0.70;0.15;;;6.50;99.90;;;;;;4965097;28;20069;-71
2021/12/01 06:03:03;;;;;;;0.22;0.10;;;6.50;99.90;;;;;;4957918;28;20062;-71
2021/12/01 06:05:28;;;;;;;0.28;0.15;;;6.50;99.90;;;;;;4958707;28;20493;-70
2021/12/01 06:07:54;;;;;;;0.30;0.30;;;6.60;99.90;;;;;;4963794;28;20023;-71
2021/12/01 06:10:20;;;;;;;0.47;0.20;;;6.60;99.90;;;;;;4962145;28;20035;-71
2021/12/01 06:12:52;;;;;;;0.10;0.10;;;6.60;99.90;;;;;;4984453;28;20387;-70
2021/12/01 06:15:18;;;;;;;0.43;0.15;;;6.60;99.90;;;;;;4964190;28;20034;-71
2021/12/01 06:17:50;;;;;;;1.35;0.20;;;6.60;99.90;;;;;;4964780;28;20479;-71
2021/12/01 06:20:16;;;;;;;1.38;0.50;;;6.60;99.90;;;;;;4967113;28;20034;-70
2021/12/01 06:22:52;;;;;;;0.30;0.30;;;6.60;99.90;;;;;;4961795;28;20031;-71
2021/12/01 06:25:24;;;;;;;0.93;0.20;;;6.60;99.90;;;;;;4963681;28;20034;-71
2021/12/01 06:27:54;;;;;;;1.85;0.28;;;6.60;99.90;;;;;;4970932;23;20351;-72
2021/12/01 06:30:21;;;;;;;0.35;0.10;;;6.60;99.90;;;;;;4961211;28;20459;-72
2021/12/01 06:32:50;;;;;;;1.30;0.43;;;6.60;99.90;;;;;;4968333;28;20043;-74
2021/12/01 06:35:16;;;;;;;0.68;0.20;;;6.60;99.90;;;;;;4955994;28;20447;-75
2021/12/01 06:37:46;;;;;;;0.63;0.30;;;6.60;99.90;;;;;;4955529;28;20035;-66
2021/12/01 06:40:13;;;;;;;1.70;0.40;;;6.60;99.90;;;;;;4940826;28;20121;-66
2021/12/01 06:42:39;;;;;;;0.22;0.20;;;7.10;99.90;;;;;;4942425;28;20031;-74
2021/12/01 06:45:12;;;;;;;1.08;0.30;;;7.30;99.90;;;;;;4944238;28;20030;-74
2021/12/01 06:47:39;;;;;;;1.15;0.20;;;7.20;99.90;;;;;;4946326;28;20396;-74
2021/12/01 06:50:06;;;;;;;0.70;0.20;;;7.10;99.90;;;;;;4949412;28;20495;-74
2021/12/01 06:52:32;;;;;;;1.08;0.22;;;7.00;99.90;;;;;;4944956;28;20067;-75
2021/12/01 06:54:59;;;;;;;1.35;0.32;;;7.00;99.90;;;;;;4942987;28;20036;-74
2021/12/01 06:57:25;;;;;;;0.30;0.28;;;6.90;99.90;;;;;;4946569;28;20140;-74
2021/12/01 06:59:51;;;;;;;2.25;0.40;;;6.90;99.90;;;;;;4943436;28;20066;-74
2021/12/01 07:02:17;;;;;;;0.73;0.20;;;6.90;99.90;;;;;;4941126;28;20401;-73
2021/12/01 07:04:43;;;;;;;0.77;0.22;;;6.90;99.90;;;;;;4943837;28;20034;-75
2021/12/01 07:07:09;;;;;;;0.57;0.30;;;6.90;99.90;;;;;;4948197;28;20027;-74
2021/12/01 07:09:35;;;;;;;0.20;0.20;;;6.90;99.90;;;;;;4949062;28;20606;-74
2021/12/01 07:12:07;;;;;;;0.28;0.10;;;6.90;99.90;;;;;;4940454;28;20031;-74
2021/12/01 07:14:33;;;;;;;2.05;0.28;;;6.90;99.90;;;;;;4941974;28;20493;-75
2021/12/01 07:16:59;;;;;;;1.50;0.32;;;6.80;99.90;;;;;;4936993;28;20031;-74
2021/12/01 07:19:24;;;;;;;0.30;0.20;;;6.90;99.90;;;;;;4939165;28;20314;-74
2021/12/01 07:21:53;;;;;;;1.40;0.20;;;6.80;99.90;;;;;;4939044;28;20553;-74
2021/12/01 07:24:20;;;;;;;0.30;0.22;;;6.80;99.90;;;;;;4936033;28;20090;-74
2021/12/01 07:26:46;;;;;;;0.20;0.15;;;6.90;99.90;;;;;;4937260;28;20038;-74
2021/12/01 07:29:12;;;;;;;0.20;0.10;;;6.90;99.90;;;;;;4939846;28;20123;-74
2021/12/01 07:31:37;;;;;;;0.20;0.10;;;6.90;99.90;;;;;;4946761;28;20426;-74
2021/12/01 07:34:03;;;;;;;0.52;0.10;;;6.90;99.90;;;;;;4951375;28;20448;-73
2021/12/01 07:36:29;;;;;;;0.32;0.10;;;7.00;99.90;;;;;;4940951;28;20040;-74
2021/12/01 07:38:59;;;;;;;1.00;0.15;;;7.00;99.90;;;;;;4941869;28;20026;-74
2021/12/01 07:41:26;;;;;;;0.38;0.20;;;7.00;99.90;;;;;;4937538;28;20038;-75
2021/12/01 07:43:51;;;;;;;0.20;0.20;;;7.10;99.90;;;;;;4947050;28;20031;-74
2021/12/01 07:46:17;;;;;;;0.63;0.10;;;7.10;99.90;;;;;;4949227;28;20023;-73
2021/12/01 07:48:49;;;;;;;0.00;0.00;;;7.10;99.90;;;;;;4949156;28;20388;-74
2021/12/01 07:51:21;;;;;;;0.77;0.30;;;7.10;99.90;;;;;;4945858;28;20361;-74
2021/12/01 07:53:46;;;;;;;0.57;0.10;;;7.10;99.90;;;;;;4946749;28;20058;-73
2021/12/01 07:56:12;;;;;;;0.25;0.10;;;7.20;99.90;;;;;;4943630;28;20500;-74
2021/12/01 07:58:41;;;;;;;0.25;0.20;;;7.20;99.90;;;;;;4949387;28;20190;-74
2021/12/01 08:01:07;;;;;;;1.40;0.17;;;7.10;99.90;;;;;;4945691;28;20031;-73
2021/12/01 08:03:32;;;;;;;0.35;0.20;;;7.20;99.90;;;;;;4960910;28;20109;-74
2021/12/01 08:05:58;;;;;;;0.10;0.10;;;7.20;99.90;;;;;;4949668;28;20552;-74
2021/12/01 08:08:24;;;;;;;0.32;0.20;;;7.30;99.90;;;;;;4944098;28;20055;-75
2021/12/01 08:10:49;;;;;;;0.38;0.20;;;7.30;99.90;;;;;;4947780;28;20031;-75
2021/12/01 08:13:15;;;;;;;0.28;0.17;;;7.40;99.90;;;;;;4940029;28;20032;-75
2021/12/01 08:15:41;;;;;;;0.20;0.10;;;7.50;99.90;;;;;;4968586;28;20118;-75
2021/12/01 08:18:07;;;;;;;0.20;0.15;;;7.50;99.90;;;;;;4940324;28;20023;-74
2021/12/01 08:20:58;;;;;;;0.25;0.10;;;7.70;99.90;;;;;;4943378;28;20039;-73
2021/12/01 08:23:25;;;;;;;0.35;0.17;;;7.70;99.90;;;;;;4934764;28;20035;-73
2021/12/01 08:25:50;;;;;;;2.22;0.10;;;7.90;99.90;;;;;;4938495;28;20290;-73
2021/12/01 08:28:19;;;;;;;0.10;0.10;;;8.00;99.90;;;;;;4933004;28;20081;-74
2021/12/01 08:30:45;;;;;;;0.20;0.10;;;8.10;99.90;;;;;;4962740;28;20130;-74
2021/12/01 08:33:17;;;;;;;0.35;0.20;;;8.30;99.90;;;;;;4940762;28;20106;-75
2021/12/01 08:35:42;;;;;;;0.77;0.20;;;8.40;99.90;;;;;;4938958;28;20089;-73
2021/12/01 08:38:08;;;;;;;0.25;0.10;;;8.40;99.90;;;;;;4939590;28;20035;-74
2021/12/01 08:40:34;;;;;;;0.20;0.10;;;8.50;99.90;;;;;;4935830;28;20122;-73
2021/12/01 08:42:59;;;;;;;0.43;0.10;;;8.50;99.90;;;;;;4935435;28;20040;-73
2021/12/01 08:45:25;;;;;;;0.00;0.00;;;8.40;99.90;;;;;;4943463;28;20039;-73
2021/12/01 08:47:51;;;;;;;0.10;0.10;;;8.40;99.90;;;;;;4938319;28;20042;-74
2021/12/01 08:50:17;;;;;;;0.40;0.08;;;8.40;99.90;;;;;;4942387;28;20565;-74
2021/12/01 08:52:45;;;;;;;0.30;0.10;;;8.40;99.90;;;;;;4942970;28;22419;-73
2021/12/01 08:55:11;;;;;;;0.25;0.20;;;8.40;99.90;;;;;;4943212;28;20544;-73
2021/12/01 08:57:38;;;;;;;1.48;0.10;;;8.40;99.90;;;;;;4939902;28;20034;-74
2021/12/01 09:00:06;;;;;;;0.20;0.10;;;8.30;99.90;;;;;;4957121;28;20035;-73
2021/12/01 09:02:33;;;;;;;0.32;0.20;;;8.30;99.90;;;;;;4943355;28;20033;-73
2021/12/01 09:05:02;;;;;;;0.10;0.10;;;8.40;99.90;;;;;;4936667;28;20027;-74
2021/12/01 09:07:28;;;;;;;0.22;0.10;;;8.40;99.90;;;;;;4941239;28;20027;-73
2021/12/01 09:09:54;;;;;;;0.13;0.13;;;8.50;99.90;;;;;;4936898;28;20081;-74
2021/12/01 09:12:22;;;;;;;0.10;0.10;;;8.60;99.90;;;;;;4935956;28;20066;-74
2021/12/01 09:14:48;;;;;;;0.10;0.10;;;8.60;99.90;;;;;;4940165;28;21360;-73
2021/12/01 09:17:15;;;;;;;0.43;0.10;;;8.70;99.90;;;;;;4938345;28;20075;-73
2021/12/01 09:19:41;;;;;;;0.10;0.10;;;8.80;99.90;;;;;;4939521;28;20022;-72
2021/12/01 09:22:20;;;;;;;1.00;0.20;;;8.90;99.90;;;;;;4949755;28;20429;-73
2021/12/01 09:24:47;;;;;;;1.38;0.10;;;9.00;99.90;;;;;;4937170;28;20102;-73
2021/12/01 09:27:14;;;;;;;1.27;0.20;;;9.10;99.90;;;;;;4936647;28;20027;-74
2021/12/01 09:29:40;;;;;;;1.05;0.03;;;9.10;99.90;;;;;;4935570;28;20113;-72
2021/12/01 09:32:07;;;;;;;3.03;0.30;;;9.30;99.90;;;;;;4939699;28;20024;-72
2021/12/01 09:34:33;;;;;;;0.32;0.10;;;9.50;99.90;;;;;;4932773;28;20023;-72
2021/12/01 09:36:59;;;;;;;0.20;0.10;;;9.60;99.90;;;;;;4937660;28;20042;-72
2021/12/01 09:39:25;;;;;;;0.30;0.15;;;9.80;99.90;;;;;;4943043;28;20039;-73
2021/12/01 09:41:55;;;;;;;0.73;0.20;;;10.00;99.90;;;;;;4938467;28;20047;-73
2021/12/01 09:44:28;;;;;;;0.17;0.10;;;10.10;99.90;;;;;;4946463;28;20159;-73
2021/12/01 09:46:54;;;;;;;0.20;0.10;;;10.20;99.90;;;;;;4964839;28;20042;-74
2021/12/01 09:49:20;;;;;;;0.20;0.10;;;10.20;99.90;;;;;;4943684;28;20270;-73
2021/12/01 09:51:46;;;;;;;1.65;0.13;;;10.20;99.90;;;;;;4947023;28;20315;-73
2021/12/01 09:54:12;;;;;;;0.00;0.00;;;10.10;99.90;;;;;;4947364;28;20027;-74
2021/12/01 09:56:38;;;;;;;0.30;0.10;;;10.00;99.90;;;;;;4943497;28;20035;-74
2021/12/01 09:59:04;;;;;;;0.15;0.10;;;10.00;99.90;;;;;;4945985;28;20030;-73
2021/12/01 10:01:30;;;;;;;0.43;0.20;;;10.00;99.90;;;;;;4953100;28;20031;-73
2021/12/01 10:03:56;;;;;;;1.30;0.20;;;10.00;99.90;;;;;;4949331;28;20027;-73
2021/12/01 10:06:23;;;;;;;0.93;0.32;;;10.00;99.90;;;;;;4942637;28;20444;-75
2021/12/01 10:08:51;;;;;;;1.48;0.65;;;10.00;99.90;;;;;;4956784;28;20030;-72
2021/12/01 10:12:03;;;;;;;0.82;0.20;;;10.00;99.90;;;;;;4941426;28;20463;-73
2021/12/01 10:14:29;;;;;;;0.75;0.20;;;10.10;99.90;;;;;;4961017;28;20588;-71
2021/12/01 10:16:55;;;;;;;0.70;0.20;;;10.20;99.90;;;;;;4949541;28;20114;-71
2021/12/01 10:19:30;;;;;;;0.47;0.20;;;10.30;99.90;;;;;;4941720;28;20038;-71
2021/12/01 10:21:56;;;;;;;0.40;0.30;;;10.30;99.90;;;;;;4948302;28;20027;-72
2021/12/01 10:24:29;;;;;;;1.60;0.20;;;10.50;99.90;;;;;;4951357;28;20020;-72
2021/12/01 10:26:57;;;;;;;0.55;0.20;;;10.60;99.90;;;;;;4944464;28;20031;-72
2021/12/01 10:29:44;;;;;;;2.38;0.30;;;10.70;99.90;;;;;;4953055;28;20058;-71
2021/12/01 10:32:10;;;;;;;1.25;0.22;;;10.70;99.90;;;;;;4947951;28;20028;-72
2021/12/01 10:34:52;;;;;;;0.80;0.32;;;10.70;99.90;;;;;;4955091;28;20026;-71
2021/12/01 10:40:11;;;;;;;1.38;0.28;;;10.70;99.90;;;;;;4947361;28;20023;-72
2021/12/01 10:42:59;;;;;;;0.50;0.20;;;10.70;99.90;;;;;;4948455;28;20102;-71
2021/12/01 10:45:28;;;;;;;0.55;0.32;;;10.70;99.90;;;;;;4949205;28;20035;-72
2021/12/01 10:47:55;;;;;;;0.52;0.32;;;10.70;99.90;;;;;;4953306;28;20068;-71
2021/12/01 10:50:26;;;;;;;0.80;0.20;;;10.60;99.90;;;;;;4947222;28;20038;-71
2021/12/01 10:53:06;;;;;;;0.70;0.40;;;10.60;99.90;;;;;;4952135;28;20036;-72
2021/12/01 10:55:33;;;;;;;1.02;0.30;;;10.60;99.90;;;;;;4948295;28;20065;-71
2021/12/01 10:58:06;;;;;;;0.60;0.20;;;10.50;99.90;;;;;;4950091;28;20027;-72
2021/12/01 11:00:39;;;;;;;0.20;0.17;;;10.50;99.90;;;;;;4947084;28;20031;-71
2021/12/01 11:03:13;;;;;;;0.52;0.30;;;10.40;99.90;;;;;;4944180;28;20097;-73
2021/12/01 11:05:42;;;;;;;0.20;0.10;;;10.30;99.90;;;;;;4944540;28;20062;-73
2021/12/01 11:08:17;;;;;;;0.63;0.30;;;10.30;99.90;;;;;;4941707;28;20058;-73
2021/12/01 11:11:10;;;;;;;0.10;0.10;;;10.20;99.90;;;;;;4946658;28;20023;-72
2021/12/01 11:13:38;;;;;;;0.63;0.20;;;10.20;99.90;;;;;;4946115;28;20036;-73
2021/12/01 11:16:10;;;;;;;0.95;0.20;;;10.20;99.90;;;;;;4949161;28;20039;-75
2021/12/01 11:18:41;;;;;;;0.38;0.30;;;10.20;99.90;;;;;;4942429;28;20507;-74
2021/12/01 11:21:25;;;;;;;0.38;0.20;;;10.30;99.90;;;;;;4947858;28;20046;-74
2021/12/01 11:23:56;;;;;;;0.50;0.40;;;10.30;99.90;;;;;;4951525;28;20034;-74
2021/12/01 11:26:24;;;;;;;0.60;0.20;;;10.40;99.90;;;;;;4947267;28;20031;-74
2021/12/01 11:28:54;;;;;;;0.22;0.10;;;10.40;99.90;;;;;;4945855;28;20091;-75
2021/12/01 11:31:29;;;;;;;0.82;0.25;;;10.30;99.90;;;;;;4948032;28;20385;-74
2021/12/01 11:34:00;;;;;;;0.55;0.20;;;10.30;99.90;;;;;;4947546;28;20023;-74
2021/12/01 11:36:38;;;;;;;0.38;0.25;;;10.30;99.90;;;;;;4950806;28;20037;-74
2021/12/01 11:39:10;;;;;;;0.30;0.20;;;10.30;99.90;;;;;;4942034;28;20036;-75
2021/12/01 11:41:41;;;;;;;0.70;0.30;;;10.30;99.90;;;;;;4952061;28;20028;-74
2021/12/01 11:44:07;;;;;;;1.75;0.50;;;10.20;99.90;;;;;;4945076;28;20023;-75
2021/12/01 11:46:33;;;;;;;0.70;0.30;;;10.20;99.90;;;;;;4943186;28;20090;-74
2021/12/01 11:49:06;;;;;;;0.35;0.20;;;10.20;99.90;;;;;;4940858;28;20035;-74
2021/12/01 11:51:33;;;;;;;0.45;0.30;;;10.20;99.90;;;;;;4943589;28;20124;-74
2021/12/01 11:54:18;;;;;;;0.57;0.30;;;10.20;99.90;;;;;;4950532;28;20024;-74
2021/12/01 11:56:58;;;;;;;2.40;0.43;;;10.20;99.90;;;;;;4947787;28;20089;-74
2021/12/01 11:59:36;;;;;;;0.85;0.32;;;10.20;99.90;;;;;;4950866;28;20027;-75
2021/12/01 12:02:08;;;;;;;2.13;0.50;;;10.10;99.90;;;;;;4951529;28;20126;-75
2021/12/01 12:04:56;;;;;;;0.80;0.40;;;10.10;99.90;;;;;;4951369;28;20028;-74
2021/12/01 12:07:27;;;;;;;0.50;0.30;;;10.10;99.90;;;;;;4945845;28;20429;-74
2021/12/01 12:10:33;;;;;;;0.90;0.47;;;10.10;99.90;;;;;;4950381;28;20036;-75
2021/12/01 12:13:04;;;;;;;0.50;0.25;;;10.00;99.90;;;;;;4947357;28;20034;-74
2021/12/01 12:15:39;;;;;;;0.40;0.30;;;10.10;99.90;;;;;;4957613;28;20107;-74
2021/12/01 12:18:35;;;;;;;0.73;0.30;;;10.20;99.90;;;;;;4963522;28;20035;-74
2021/12/01 12:21:20;;;;;;;1.65;0.50;;;10.30;99.90;;;;;;4963962;28;20116;-75
2021/12/01 12:23:47;;;;;;;2.00;0.80;;;10.30;99.90;;;;;;4946652;28;20019;-74
2021/12/01 12:26:30;;;;;;;2.40;0.40;;;10.40;99.90;;;;;;4948862;28;20171;-74
2021/12/01 12:29:06;;;;;;;0.50;0.20;;;10.40;99.90;;;;;;4997573;23;21051;-68
2021/12/01 12:31:36;;;;;;;0.45;0.30;;;10.30;99.90;;;;;;4994614;28;20503;-68
2021/12/01 12:34:10;;;;;;;1.85;0.30;;;10.30;99.90;;;;;;4987616;28;20033;-68
2021/12/01 12:36:43;;;;;;;;;;;10.30;99.90;;;;;;4981454;28;20086;-68
2021/12/01 12:39:15;;;;;;;1.25;0.55;;;10.40;99.90;;;;;;4971262;28;19914;-68
2021/12/01 12:41:57;;;;;;;0.40;0.22;;;10.40;99.90;;;;;;4969598;28;20126;-68
2021/12/01 12:44:38;;;;;;;0.55;0.22;;;10.50;99.90;;;;;;4972063;28;20027;-68
2021/12/01 12:47:15;;;;;;;1.15;0.47;;;10.50;99.90;;;;;;4982963;28;20030;-68
2021/12/01 12:49:50;;;;;;;1.88;0.38;;;10.50;99.90;;;;;;4967372;28;20024;-68
2021/12/01 12:52:25;;;;;;;0.43;0.20;;;10.60;99.90;;;;;;4969886;28;20515;-68
2021/12/01 12:55:05;;;;;;;0.57;0.28;;;10.60;99.90;;;;;;4966606;28;20038;-68
2021/12/01 12:58:06;;;;;;;0.60;0.17;;;10.60;99.90;;;;;;4980671;28;20027;-69
2021/12/01 13:00:44;;;;;;;0.50;0.20;;;10.50;99.90;;;;;;4960520;28;20034;-68
2021/12/01 13:03:26;;;;;;;0.70;0.30;;;10.50;99.90;;;;;;4963645;28;20023;-68
2021/12/01 13:05:57;;;;;;;0.50;0.30;;;10.40;99.90;;;;;;4968258;28;20033;-68
2021/12/01 13:08:35;;;;;;;1.73;0.50;;;10.40;99.90;;;;;;4963088;28;20110;-68
2021/12/01 13:11:04;;;;;;;1.25;0.47;;;10.30;99.90;;;;;;4964640;28;20031;-69
2021/12/01 13:13:38;;;;;;;1.40;0.52;;;10.30;99.90;;;;;;4976801;28;20495;-68
2021/12/01 13:16:07;;;;;;;0.40;0.30;;;10.20;99.90;;;;;;4972855;28;20023;-68
2021/12/01 13:18:35;;;;;;;0.57;0.30;;;10.20;99.90;;;;;;4966880;28;20109;-68
2021/12/01 13:21:06;;;;;;;0.70;0.30;;;10.10;99.90;;;;;;4960658;28;20031;-68